sensor_id;sensor_type;location;lat;lon;timestamp;P1;durP1;ratioP1;P2;durP2;ratioP2
18532;SDS011;9396;51.510;11.934;2022-11-14T00:01:29;21.83;;;13.77;;
18532;SDS011;9396;51.510;11.934;2022-11-14T00:03:56;57.53;;;27.73;;
18532;SDS011;9396;51.510;11.934;2022-11-14T00:06:23;25.63;;;12.50;;
18532;SDS011;9396;51.510;11.934;2022-11-14T00:08:51;27.93;;;12.30;;
18532;SDS011;9396;51.510;11.934;2022-11-14T00:11:18;34.53;;;19.17;;
18532;SDS011;9396;51.510;11.934;2022-11-14T00:13:44;45.53;;;22.93;;
18532;SDS011;9396;51.510;11.934;2022-11-14T00:16:11;34.53;;;12.93;;
18532;SDS011;9396;51.510;11.934;2022-11-14T00:18:38;55.63;;;31.00;;
18532;SDS011;9396;51.510;11.934;2022-11-14T00:21:04;94.03;;;44.70;;
18532;SDS011;9396;51.510;11.934;2022-11-14T00:23:31;76.27;;;37.07;;
18532;SDS011;9396;51.510;11.934;2022-11-14T00:25:59;31.47;;;12.07;;
18532;SDS011;9396;51.510;11.934;2022-11-14T00:28:26;32.23;;;13.23;;
18532;SDS011;9396;51.510;11.934;2022-11-14T00:30:53;32.13;;;13.37;;
18532;SDS011;9396;51.510;11.934;2022-11-14T00:33:19;24.23;;;15.17;;
18532;SDS011;9396;51.510;11.934;2022-11-14T00:35:50;30.73;;;15.03;;
18532;SDS011;9396;51.510;11.934;2022-11-14T00:38:17;30.93;;;15.90;;
18532;SDS011;9396;51.510;11.934;2022-11-14T00:40:44;28.47;;;16.70;;
18532;SDS011;9396;51.510;11.934;2022-11-14T00:43:13;43.10;;;22.77;;
18532;SDS011;9396;51.510;11.934;2022-11-14T00:45:41;25.17;;;14.30;;
18532;SDS011;9396;51.510;11.934;2022-11-14T00:48:08;27.87;;;13.23;;
18532;SDS011;9396;51.510;11.934;2022-11-14T00:50:35;38.77;;;17.50;;
18532;SDS011;9396;51.510;11.934;2022-11-14T00:53:02;30.70;;;14.73;;
18532;SDS011;9396;51.510;11.934;2022-11-14T00:55:29;48.57;;;15.23;;
18532;SDS011;9396;51.510;11.934;2022-11-14T00:57:55;59.43;;;14.37;;
18532;SDS011;9396;51.510;11.934;2022-11-14T01:00:23;39.43;;;15.23;;
18532;SDS011;9396;51.510;11.934;2022-11-14T01:02:50;52.50;;;14.77;;
18532;SDS011;9396;51.510;11.934;2022-11-14T01:05:20;45.43;;;14.93;;
18532;SDS011;9396;51.510;11.934;2022-11-14T01:07:47;38.50;;;13.93;;
18532;SDS011;9396;51.510;11.934;2022-11-14T01:10:14;39.80;;;15.47;;
18532;SDS011;9396;51.510;11.934;2022-11-14T01:12:41;32.63;;;15.20;;
18532;SDS011;9396;51.510;11.934;2022-11-14T01:15:08;36.67;;;15.43;;
18532;SDS011;9396;51.510;11.934;2022-11-14T01:17:37;64.40;;;15.10;;
18532;SDS011;9396;51.510;11.934;2022-11-14T01:20:04;34.23;;;15.00;;
18532;SDS011;9396;51.510;11.934;2022-11-14T01:22:31;58.80;;;15.40;;
18532;SDS011;9396;51.510;11.934;2022-11-14T01:24:58;71.47;;;16.10;;
18532;SDS011;9396;51.510;11.934;2022-11-14T01:27:24;24.77;;;14.93;;
18532;SDS011;9396;51.510;11.934;2022-11-14T01:29:51;28.73;;;14.13;;
18532;SDS011;9396;51.510;11.934;2022-11-14T01:32:18;40.30;;;14.77;;
18532;SDS011;9396;51.510;11.934;2022-11-14T01:34:46;56.77;;;15.57;;
18532;SDS011;9396;51.510;11.934;2022-11-14T01:37:13;42.47;;;14.87;;
18532;SDS011;9396;51.510;11.934;2022-11-14T01:39:39;44.20;;;15.43;;
18532;SDS011;9396;51.510;11.934;2022-11-14T01:42:06;46.80;;;15.10;;
18532;SDS011;9396;51.510;11.934;2022-11-14T01:44:42;39.20;;;15.20;;
18532;SDS011;9396;51.510;11.934;2022-11-14T01:47:11;63.43;;;15.20;;
18532;SDS011;9396;51.510;11.934;2022-11-14T01:49:41;45.23;;;14.70;;
18532;SDS011;9396;51.510;11.934;2022-11-14T01:52:13;31.57;;;14.63;;
18532;SDS011;9396;51.510;11.934;2022-11-14T01:54:44;40.97;;;15.07;;
18532;SDS011;9396;51.510;11.934;2022-11-14T01:57:13;31.67;;;15.50;;
18532;SDS011;9396;51.510;11.934;2022-11-14T01:59:45;35.03;;;14.93;;
18532;SDS011;9396;51.510;11.934;2022-11-14T02:02:15;42.20;;;14.03;;
18532;SDS011;9396;51.510;11.934;2022-11-14T02:04:46;31.80;;;13.93;;
18532;SDS011;9396;51.510;11.934;2022-11-14T02:07:17;34.03;;;14.77;;
18532;SDS011;9396;51.510;11.934;2022-11-14T02:09:45;38.43;;;14.50;;
18532;SDS011;9396;51.510;11.934;2022-11-14T02:12:13;30.63;;;15.47;;
18532;SDS011;9396;51.510;11.934;2022-11-14T02:14:42;33.20;;;14.63;;
18532;SDS011;9396;51.510;11.934;2022-11-14T02:17:10;35.87;;;14.83;;
18532;SDS011;9396;51.510;11.934;2022-11-14T02:19:41;48.13;;;14.77;;
18532;SDS011;9396;51.510;11.934;2022-11-14T02:22:11;38.27;;;15.57;;
18532;SDS011;9396;51.510;11.934;2022-11-14T02:24:37;41.53;;;15.97;;
18532;SDS011;9396;51.510;11.934;2022-11-14T02:27:04;37.17;;;15.40;;
18532;SDS011;9396;51.510;11.934;2022-11-14T02:29:32;34.57;;;16.37;;
18532;SDS011;9396;51.510;11.934;2022-11-14T02:32:00;53.83;;;17.00;;
18532;SDS011;9396;51.510;11.934;2022-11-14T02:34:27;36.97;;;16.00;;
18532;SDS011;9396;51.510;11.934;2022-11-14T02:36:54;54.70;;;16.70;;
18532;SDS011;9396;51.510;11.934;2022-11-14T02:39:22;36.47;;;15.77;;
18532;SDS011;9396;51.510;11.934;2022-11-14T02:41:49;51.30;;;16.10;;
18532;SDS011;9396;51.510;11.934;2022-11-14T02:44:16;44.57;;;14.87;;
18532;SDS011;9396;51.510;11.934;2022-11-14T02:46:44;44.63;;;16.07;;
18532;SDS011;9396;51.510;11.934;2022-11-14T02:49:11;40.17;;;15.47;;
18532;SDS011;9396;51.510;11.934;2022-11-14T02:51:37;35.40;;;15.70;;
18532;SDS011;9396;51.510;11.934;2022-11-14T02:54:05;54.47;;;16.07;;
18532;SDS011;9396;51.510;11.934;2022-11-14T02:56:33;44.80;;;16.77;;
18532;SDS011;9396;51.510;11.934;2022-11-14T02:59:00;47.73;;;16.23;;
18532;SDS011;9396;51.510;11.934;2022-11-14T03:01:26;71.27;;;17.30;;
18532;SDS011;9396;51.510;11.934;2022-11-14T03:03:53;48.83;;;16.27;;
18532;SDS011;9396;51.510;11.934;2022-11-14T03:06:19;59.73;;;17.03;;
18532;SDS011;9396;51.510;11.934;2022-11-14T03:08:46;65.50;;;17.60;;
18532;SDS011;9396;51.510;11.934;2022-11-14T03:11:13;59.50;;;18.47;;
18532;SDS011;9396;51.510;11.934;2022-11-14T03:13:41;52.70;;;17.67;;
18532;SDS011;9396;51.510;11.934;2022-11-14T03:16:08;62.63;;;18.43;;
18532;SDS011;9396;51.510;11.934;2022-11-14T03:18:39;63.37;;;18.13;;
18532;SDS011;9396;51.510;11.934;2022-11-14T03:21:06;60.27;;;18.30;;
18532;SDS011;9396;51.510;11.934;2022-11-14T03:23:34;96.40;;;18.57;;
18532;SDS011;9396;51.510;11.934;2022-11-14T03:26:01;78.37;;;19.30;;
18532;SDS011;9396;51.510;11.934;2022-11-14T03:28:28;57.57;;;18.20;;
18532;SDS011;9396;51.510;11.934;2022-11-14T03:30:56;71.70;;;18.37;;
18532;SDS011;9396;51.510;11.934;2022-11-14T03:33:23;87.17;;;17.73;;
18532;SDS011;9396;51.510;11.934;2022-11-14T03:35:50;55.63;;;18.00;;
18532;SDS011;9396;51.510;11.934;2022-11-14T03:38:17;49.50;;;17.87;;
18532;SDS011;9396;51.510;11.934;2022-11-14T03:40:47;79.43;;;19.10;;
18532;SDS011;9396;51.510;11.934;2022-11-14T03:43:14;73.23;;;17.93;;
18532;SDS011;9396;51.510;11.934;2022-11-14T03:45:40;100.97;;;20.13;;
18532;SDS011;9396;51.510;11.934;2022-11-14T03:48:08;73.63;;;18.60;;
18532;SDS011;9396;51.510;11.934;2022-11-14T03:50:35;78.40;;;18.40;;
18532;SDS011;9396;51.510;11.934;2022-11-14T03:53:02;79.60;;;17.77;;
18532;SDS011;9396;51.510;11.934;2022-11-14T03:55:31;84.43;;;19.33;;
18532;SDS011;9396;51.510;11.934;2022-11-14T03:57:57;48.33;;;18.83;;
18532;SDS011;9396;51.510;11.934;2022-11-14T04:00:24;56.77;;;18.83;;
18532;SDS011;9396;51.510;11.934;2022-11-14T04:02:52;67.87;;;18.80;;
18532;SDS011;9396;51.510;11.934;2022-11-14T04:05:20;57.77;;;17.40;;
18532;SDS011;9396;51.510;11.934;2022-11-14T04:07:47;72.23;;;18.73;;
18532;SDS011;9396;51.510;11.934;2022-11-14T04:10:14;71.10;;;19.57;;
18532;SDS011;9396;51.510;11.934;2022-11-14T04:12:44;74.33;;;19.17;;
18532;SDS011;9396;51.510;11.934;2022-11-14T04:15:12;92.60;;;19.47;;
18532;SDS011;9396;51.510;11.934;2022-11-14T04:17:39;51.67;;;19.07;;
18532;SDS011;9396;51.510;11.934;2022-11-14T04:20:06;63.40;;;19.50;;
18532;SDS011;9396;51.510;11.934;2022-11-14T04:22:34;48.83;;;18.37;;
18532;SDS011;9396;51.510;11.934;2022-11-14T04:25:01;55.23;;;18.60;;
18532;SDS011;9396;51.510;11.934;2022-11-14T04:27:28;54.27;;;19.07;;
18532;SDS011;9396;51.510;11.934;2022-11-14T04:29:54;49.10;;;20.57;;
18532;SDS011;9396;51.510;11.934;2022-11-14T04:32:21;56.20;;;20.13;;
18532;SDS011;9396;51.510;11.934;2022-11-14T04:34:48;44.03;;;19.10;;
18532;SDS011;9396;51.510;11.934;2022-11-14T04:37:14;51.90;;;19.53;;
18532;SDS011;9396;51.510;11.934;2022-11-14T04:39:42;54.57;;;20.60;;
18532;SDS011;9396;51.510;11.934;2022-11-14T04:42:09;56.07;;;19.17;;
18532;SDS011;9396;51.510;11.934;2022-11-14T04:44:35;44.17;;;19.03;;
18532;SDS011;9396;51.510;11.934;2022-11-14T04:47:02;46.33;;;19.43;;
18532;SDS011;9396;51.510;11.934;2022-11-14T04:49:29;42.40;;;20.13;;
18532;SDS011;9396;51.510;11.934;2022-11-14T04:51:55;46.30;;;19.77;;
18532;SDS011;9396;51.510;11.934;2022-11-14T04:54:22;57.40;;;20.93;;
18532;SDS011;9396;51.510;11.934;2022-11-14T04:56:50;36.40;;;20.83;;
18532;SDS011;9396;51.510;11.934;2022-11-14T04:59:17;59.37;;;20.57;;
18532;SDS011;9396;51.510;11.934;2022-11-14T05:01:43;41.43;;;20.43;;
18532;SDS011;9396;51.510;11.934;2022-11-14T05:04:10;39.43;;;20.00;;
18532;SDS011;9396;51.510;11.934;2022-11-14T05:06:37;48.33;;;20.70;;
18532;SDS011;9396;51.510;11.934;2022-11-14T05:09:03;45.27;;;19.80;;
18532;SDS011;9396;51.510;11.934;2022-11-14T05:11:30;49.97;;;22.20;;
18532;SDS011;9396;51.510;11.934;2022-11-14T05:13:58;49.80;;;21.77;;
18532;SDS011;9396;51.510;11.934;2022-11-14T05:16:24;42.43;;;21.70;;
18532;SDS011;9396;51.510;11.934;2022-11-14T05:18:52;40.47;;;21.87;;
18532;SDS011;9396;51.510;11.934;2022-11-14T05:21:19;35.40;;;21.33;;
18532;SDS011;9396;51.510;11.934;2022-11-14T05:23:45;39.47;;;22.10;;
18532;SDS011;9396;51.510;11.934;2022-11-14T05:26:13;44.93;;;21.33;;
18532;SDS011;9396;51.510;11.934;2022-11-14T05:28:41;36.03;;;20.57;;
18532;SDS011;9396;51.510;11.934;2022-11-14T05:31:09;40.07;;;22.07;;
18532;SDS011;9396;51.510;11.934;2022-11-14T05:33:38;37.07;;;20.90;;
18532;SDS011;9396;51.510;11.934;2022-11-14T05:36:05;42.17;;;20.47;;
18532;SDS011;9396;51.510;11.934;2022-11-14T05:38:33;37.80;;;21.63;;
18532;SDS011;9396;51.510;11.934;2022-11-14T05:41:03;40.93;;;20.87;;
18532;SDS011;9396;51.510;11.934;2022-11-14T05:43:30;47.20;;;20.67;;
18532;SDS011;9396;51.510;11.934;2022-11-14T05:45:58;40.23;;;20.53;;
18532;SDS011;9396;51.510;11.934;2022-11-14T05:48:26;34.80;;;20.03;;
18532;SDS011;9396;51.510;11.934;2022-11-14T05:50:53;47.97;;;20.40;;
18532;SDS011;9396;51.510;11.934;2022-11-14T05:53:20;37.77;;;20.10;;
18532;SDS011;9396;51.510;11.934;2022-11-14T05:55:47;34.90;;;20.50;;
18532;SDS011;9396;51.510;11.934;2022-11-14T05:58:13;35.57;;;21.07;;
18532;SDS011;9396;51.510;11.934;2022-11-14T06:00:40;37.73;;;20.07;;
18532;SDS011;9396;51.510;11.934;2022-11-14T06:03:07;44.77;;;21.00;;
18532;SDS011;9396;51.510;11.934;2022-11-14T06:05:35;38.70;;;20.43;;
18532;SDS011;9396;51.510;11.934;2022-11-14T06:08:02;34.67;;;20.27;;
18532;SDS011;9396;51.510;11.934;2022-11-14T06:10:28;42.80;;;19.57;;
18532;SDS011;9396;51.510;11.934;2022-11-14T06:12:55;31.83;;;19.67;;
18532;SDS011;9396;51.510;11.934;2022-11-14T06:15:22;33.43;;;18.70;;
18532;SDS011;9396;51.510;11.934;2022-11-14T06:17:50;51.10;;;21.07;;
18532;SDS011;9396;51.510;11.934;2022-11-14T06:20:17;43.20;;;18.20;;
18532;SDS011;9396;51.510;11.934;2022-11-14T06:22:45;36.80;;;19.97;;
18532;SDS011;9396;51.510;11.934;2022-11-14T06:25:12;47.43;;;20.77;;
18532;SDS011;9396;51.510;11.934;2022-11-14T06:27:39;38.70;;;20.17;;
18532;SDS011;9396;51.510;11.934;2022-11-14T06:30:06;32.80;;;19.40;;
18532;SDS011;9396;51.510;11.934;2022-11-14T06:32:33;34.77;;;20.13;;
18532;SDS011;9396;51.510;11.934;2022-11-14T06:35:00;32.63;;;19.57;;
18532;SDS011;9396;51.510;11.934;2022-11-14T06:37:26;38.10;;;20.17;;
18532;SDS011;9396;51.510;11.934;2022-11-14T06:39:54;33.47;;;18.60;;
18532;SDS011;9396;51.510;11.934;2022-11-14T06:42:21;32.73;;;19.87;;
18532;SDS011;9396;51.510;11.934;2022-11-14T06:44:47;35.37;;;20.23;;
18532;SDS011;9396;51.510;11.934;2022-11-14T06:47:14;34.83;;;19.80;;
18532;SDS011;9396;51.510;11.934;2022-11-14T06:49:40;31.40;;;18.33;;
18532;SDS011;9396;51.510;11.934;2022-11-14T06:52:07;32.90;;;18.13;;
18532;SDS011;9396;51.510;11.934;2022-11-14T06:54:34;32.03;;;18.87;;
18532;SDS011;9396;51.510;11.934;2022-11-14T06:57:02;30.97;;;18.17;;
18532;SDS011;9396;51.510;11.934;2022-11-14T06:59:28;30.47;;;18.20;;
18532;SDS011;9396;51.510;11.934;2022-11-14T07:01:55;29.20;;;18.13;;
18532;SDS011;9396;51.510;11.934;2022-11-14T07:04:22;28.53;;;18.13;;
18532;SDS011;9396;51.510;11.934;2022-11-14T07:06:48;31.77;;;19.63;;
18532;SDS011;9396;51.510;11.934;2022-11-14T07:09:15;30.70;;;18.27;;
18532;SDS011;9396;51.510;11.934;2022-11-14T07:11:41;29.57;;;18.30;;
18532;SDS011;9396;51.510;11.934;2022-11-14T07:14:12;28.10;;;18.07;;
18532;SDS011;9396;51.510;11.934;2022-11-14T07:16:38;32.53;;;19.87;;
18532;SDS011;9396;51.510;11.934;2022-11-14T07:19:06;32.77;;;19.00;;
18532;SDS011;9396;51.510;11.934;2022-11-14T07:21:34;32.33;;;18.63;;
18532;SDS011;9396;51.510;11.934;2022-11-14T07:24:01;30.77;;;18.60;;
18532;SDS011;9396;51.510;11.934;2022-11-14T07:26:27;27.70;;;18.03;;
18532;SDS011;9396;51.510;11.934;2022-11-14T07:28:54;29.03;;;17.53;;
18532;SDS011;9396;51.510;11.934;2022-11-14T07:31:22;26.73;;;17.50;;
18532;SDS011;9396;51.510;11.934;2022-11-14T07:33:49;28.10;;;18.67;;
18532;SDS011;9396;51.510;11.934;2022-11-14T07:36:15;30.43;;;18.93;;
18532;SDS011;9396;51.510;11.934;2022-11-14T07:38:42;26.90;;;16.97;;
18532;SDS011;9396;51.510;11.934;2022-11-14T07:41:10;28.07;;;17.50;;
18532;SDS011;9396;51.510;11.934;2022-11-14T07:43:37;29.23;;;18.50;;
18532;SDS011;9396;51.510;11.934;2022-11-14T07:46:05;28.27;;;17.77;;
18532;SDS011;9396;51.510;11.934;2022-11-14T07:48:34;29.43;;;18.43;;
18532;SDS011;9396;51.510;11.934;2022-11-14T07:51:02;26.50;;;16.67;;
18532;SDS011;9396;51.510;11.934;2022-11-14T07:53:30;28.40;;;17.10;;
18532;SDS011;9396;51.510;11.934;2022-11-14T07:56:00;27.13;;;17.13;;
18532;SDS011;9396;51.510;11.934;2022-11-14T07:58:28;27.53;;;17.50;;
18532;SDS011;9396;51.510;11.934;2022-11-14T08:00:58;30.80;;;18.63;;
18532;SDS011;9396;51.510;11.934;2022-11-14T08:03:26;29.20;;;17.97;;
18532;SDS011;9396;51.510;11.934;2022-11-14T08:05:59;29.33;;;17.87;;
18532;SDS011;9396;51.510;11.934;2022-11-14T08:08:26;30.33;;;19.23;;
18532;SDS011;9396;51.510;11.934;2022-11-14T08:10:54;30.27;;;18.03;;
18532;SDS011;9396;51.510;11.934;2022-11-14T08:13:21;31.13;;;18.77;;
18532;SDS011;9396;51.510;11.934;2022-11-14T08:15:48;34.00;;;19.77;;
18532;SDS011;9396;51.510;11.934;2022-11-14T08:18:15;33.10;;;19.00;;
18532;SDS011;9396;51.510;11.934;2022-11-14T08:20:42;37.17;;;20.63;;
18532;SDS011;9396;51.510;11.934;2022-11-14T08:23:10;41.83;;;21.30;;
18532;SDS011;9396;51.510;11.934;2022-11-14T08:25:38;35.10;;;19.90;;
18532;SDS011;9396;51.510;11.934;2022-11-14T08:28:04;33.87;;;19.37;;
18532;SDS011;9396;51.510;11.934;2022-11-14T08:30:31;37.67;;;21.00;;
18532;SDS011;9396;51.510;11.934;2022-11-14T08:33:00;37.93;;;21.23;;
18532;SDS011;9396;51.510;11.934;2022-11-14T08:35:27;38.33;;;21.20;;
18532;SDS011;9396;51.510;11.934;2022-11-14T08:37:54;35.30;;;20.90;;
18532;SDS011;9396;51.510;11.934;2022-11-14T08:40:22;41.00;;;22.57;;
18532;SDS011;9396;51.510;11.934;2022-11-14T08:42:49;35.97;;;21.83;;
18532;SDS011;9396;51.510;11.934;2022-11-14T08:45:16;34.43;;;20.80;;
18532;SDS011;9396;51.510;11.934;2022-11-14T08:47:49;39.00;;;20.77;;
18532;SDS011;9396;51.510;11.934;2022-11-14T08:50:16;34.10;;;21.33;;
18532;SDS011;9396;51.510;11.934;2022-11-14T08:52:42;33.27;;;20.20;;
18532;SDS011;9396;51.510;11.934;2022-11-14T08:55:14;37.07;;;21.67;;
18532;SDS011;9396;51.510;11.934;2022-11-14T08:57:42;33.60;;;20.80;;
18532;SDS011;9396;51.510;11.934;2022-11-14T09:00:09;34.20;;;21.53;;
18532;SDS011;9396;51.510;11.934;2022-11-14T09:02:36;37.70;;;21.50;;
18532;SDS011;9396;51.510;11.934;2022-11-14T09:05:03;39.03;;;22.37;;
18532;SDS011;9396;51.510;11.934;2022-11-14T09:07:30;35.57;;;21.00;;
18532;SDS011;9396;51.510;11.934;2022-11-14T09:09:57;39.00;;;21.50;;
18532;SDS011;9396;51.510;11.934;2022-11-14T09:12:24;42.27;;;22.10;;
18532;SDS011;9396;51.510;11.934;2022-11-14T09:14:52;40.13;;;22.67;;
18532;SDS011;9396;51.510;11.934;2022-11-14T09:17:18;39.10;;;23.77;;
18532;SDS011;9396;51.510;11.934;2022-11-14T09:19:45;39.93;;;22.07;;
18532;SDS011;9396;51.510;11.934;2022-11-14T09:22:11;35.37;;;22.43;;
18532;SDS011;9396;51.510;11.934;2022-11-14T09:24:38;40.00;;;23.37;;
18532;SDS011;9396;51.510;11.934;2022-11-14T09:27:05;37.27;;;21.40;;
18532;SDS011;9396;51.510;11.934;2022-11-14T09:29:31;36.13;;;23.27;;
18532;SDS011;9396;51.510;11.934;2022-11-14T09:32:00;40.20;;;22.43;;
18532;SDS011;9396;51.510;11.934;2022-11-14T09:34:26;41.93;;;24.40;;
18532;SDS011;9396;51.510;11.934;2022-11-14T09:36:53;38.13;;;22.90;;
18532;SDS011;9396;51.510;11.934;2022-11-14T09:39:19;42.93;;;23.67;;
18532;SDS011;9396;51.510;11.934;2022-11-14T09:41:50;36.30;;;23.33;;
18532;SDS011;9396;51.510;11.934;2022-11-14T09:44:31;36.23;;;22.00;;
18532;SDS011;9396;51.510;11.934;2022-11-14T09:47:15;37.30;;;22.80;;
18532;SDS011;9396;51.510;11.934;2022-11-14T09:49:48;36.57;;;22.90;;
18532;SDS011;9396;51.510;11.934;2022-11-14T09:52:20;37.70;;;22.97;;
18532;SDS011;9396;51.510;11.934;2022-11-14T09:54:56;36.63;;;22.50;;
18532;SDS011;9396;51.510;11.934;2022-11-14T09:57:24;39.03;;;23.00;;
18532;SDS011;9396;51.510;11.934;2022-11-14T09:59:53;33.27;;;21.73;;
18532;SDS011;9396;51.510;11.934;2022-11-14T10:02:30;33.93;;;21.73;;
18532;SDS011;9396;51.510;11.934;2022-11-14T10:05:08;36.13;;;21.57;;
18532;SDS011;9396;51.510;11.934;2022-11-14T10:07:48;34.03;;;21.93;;
18532;SDS011;9396;51.510;11.934;2022-11-14T10:10:32;39.83;;;22.00;;
18532;SDS011;9396;51.510;11.934;2022-11-14T10:13:12;36.67;;;22.63;;
18532;SDS011;9396;51.510;11.934;2022-11-14T10:15:51;38.57;;;21.80;;
18532;SDS011;9396;51.510;11.934;2022-11-14T10:18:30;37.57;;;21.47;;
18532;SDS011;9396;51.510;11.934;2022-11-14T10:21:08;32.17;;;21.50;;
18532;SDS011;9396;51.510;11.934;2022-11-14T10:23:46;33.37;;;21.43;;
18532;SDS011;9396;51.510;11.934;2022-11-14T10:26:24;34.70;;;21.33;;
18532;SDS011;9396;51.510;11.934;2022-11-14T10:29:05;32.67;;;22.07;;
18532;SDS011;9396;51.510;11.934;2022-11-14T10:31:57;31.93;;;21.50;;
18532;SDS011;9396;51.510;11.934;2022-11-14T10:34:32;34.43;;;21.13;;
18532;SDS011;9396;51.510;11.934;2022-11-14T10:37:04;33.67;;;21.73;;
18532;SDS011;9396;51.510;11.934;2022-11-14T10:39:41;28.63;;;20.23;;
18532;SDS011;9396;51.510;11.934;2022-11-14T10:42:12;29.90;;;20.53;;
18532;SDS011;9396;51.510;11.934;2022-11-14T10:44:46;31.13;;;20.23;;
18532;SDS011;9396;51.510;11.934;2022-11-14T10:47:19;28.73;;;20.07;;
18532;SDS011;9396;51.510;11.934;2022-11-14T10:49:49;31.07;;;20.97;;
18532;SDS011;9396;51.510;11.934;2022-11-14T10:52:21;31.83;;;19.77;;
18532;SDS011;9396;51.510;11.934;2022-11-14T10:54:59;30.17;;;19.23;;
18532;SDS011;9396;51.510;11.934;2022-11-14T10:57:31;30.00;;;19.87;;
18532;SDS011;9396;51.510;11.934;2022-11-14T10:59:58;30.30;;;19.53;;
18532;SDS011;9396;51.510;11.934;2022-11-14T11:02:25;29.90;;;20.13;;
18532;SDS011;9396;51.510;11.934;2022-11-14T11:04:53;32.00;;;19.67;;
18532;SDS011;9396;51.510;11.934;2022-11-14T11:07:42;30.73;;;19.73;;
18532;SDS011;9396;51.510;11.934;2022-11-14T11:10:27;26.73;;;19.23;;
18532;SDS011;9396;51.510;11.934;2022-11-14T11:13:12;26.87;;;18.77;;
18532;SDS011;9396;51.510;11.934;2022-11-14T11:15:54;26.77;;;19.97;;
18532;SDS011;9396;51.510;11.934;2022-11-14T11:18:24;29.33;;;18.57;;
18532;SDS011;9396;51.510;11.934;2022-11-14T11:21:04;29.23;;;19.20;;
18532;SDS011;9396;51.510;11.934;2022-11-14T11:23:33;29.13;;;18.47;;
18532;SDS011;9396;51.510;11.934;2022-11-14T11:26:01;29.43;;;18.80;;
18532;SDS011;9396;51.510;11.934;2022-11-14T11:28:32;28.73;;;18.97;;
18532;SDS011;9396;51.510;11.934;2022-11-14T11:30:59;30.30;;;20.00;;
18532;SDS011;9396;51.510;11.934;2022-11-14T11:33:28;27.87;;;18.40;;
18532;SDS011;9396;51.510;11.934;2022-11-14T11:35:56;29.07;;;19.50;;
18532;SDS011;9396;51.510;11.934;2022-11-14T11:38:27;26.73;;;18.80;;
18532;SDS011;9396;51.510;11.934;2022-11-14T11:40:58;26.10;;;18.50;;
18532;SDS011;9396;51.510;11.934;2022-11-14T11:43:33;25.17;;;18.00;;
18532;SDS011;9396;51.510;11.934;2022-11-14T11:46:05;22.50;;;16.20;;
18532;SDS011;9396;51.510;11.934;2022-11-14T11:48:37;26.47;;;15.63;;
18532;SDS011;9396;51.510;11.934;2022-11-14T11:51:05;25.90;;;16.83;;
18532;SDS011;9396;51.510;11.934;2022-11-14T11:53:41;24.67;;;15.73;;
18532;SDS011;9396;51.510;11.934;2022-11-14T11:56:10;21.20;;;15.10;;
18532;SDS011;9396;51.510;11.934;2022-11-14T11:58:41;23.20;;;15.73;;
18532;SDS011;9396;51.510;11.934;2022-11-14T12:01:10;24.80;;;15.73;;
18532;SDS011;9396;51.510;11.934;2022-11-14T12:03:38;23.87;;;16.47;;
18532;SDS011;9396;51.510;11.934;2022-11-14T12:06:10;22.20;;;15.80;;
18532;SDS011;9396;51.510;11.934;2022-11-14T12:08:45;22.27;;;16.43;;
18532;SDS011;9396;51.510;11.934;2022-11-14T12:11:23;22.27;;;15.93;;
18532;SDS011;9396;51.510;11.934;2022-11-14T12:13:59;21.40;;;15.27;;
18532;SDS011;9396;51.510;11.934;2022-11-14T12:16:38;22.50;;;15.60;;
18532;SDS011;9396;51.510;11.934;2022-11-14T12:19:26;20.97;;;14.83;;
18532;SDS011;9396;51.510;11.934;2022-11-14T12:22:13;18.77;;;14.53;;
18532;SDS011;9396;51.510;11.934;2022-11-14T12:24:59;19.43;;;14.57;;
18532;SDS011;9396;51.510;11.934;2022-11-14T12:27:46;20.30;;;14.33;;
18532;SDS011;9396;51.510;11.934;2022-11-14T12:30:25;21.20;;;14.23;;
18532;SDS011;9396;51.510;11.934;2022-11-14T12:32:53;24.57;;;14.27;;
18532;SDS011;9396;51.510;11.934;2022-11-14T12:35:23;21.13;;;14.07;;
18532;SDS011;9396;51.510;11.934;2022-11-14T12:37:54;18.97;;;14.10;;
18532;SDS011;9396;51.510;11.934;2022-11-14T12:40:26;21.07;;;14.07;;
18532;SDS011;9396;51.510;11.934;2022-11-14T12:42:56;19.00;;;14.10;;
18532;SDS011;9396;51.510;11.934;2022-11-14T12:48:28;19.73;;;13.53;;
18532;SDS011;9396;51.510;11.934;2022-11-14T12:50:57;18.60;;;12.80;;
18532;SDS011;9396;51.510;11.934;2022-11-14T12:53:37;18.03;;;13.37;;
18532;SDS011;9396;51.510;11.934;2022-11-14T12:56:15;19.50;;;12.90;;
18532;SDS011;9396;51.510;11.934;2022-11-14T13:02:01;14.90;;;11.37;;
18532;SDS011;9396;51.510;11.934;2022-11-14T13:04:58;14.87;;;11.33;;
18532;SDS011;9396;51.510;11.934;2022-11-14T13:07:41;17.60;;;11.03;;
18532;SDS011;9396;51.510;11.934;2022-11-14T13:10:21;14.83;;;10.83;;
18532;SDS011;9396;51.510;11.934;2022-11-14T13:13:03;14.93;;;11.27;;
18532;SDS011;9396;51.510;11.934;2022-11-14T13:15:49;15.37;;;10.77;;
18532;SDS011;9396;51.510;11.934;2022-11-14T13:18:35;14.43;;;10.53;;
18532;SDS011;9396;51.510;11.934;2022-11-14T13:21:32;15.70;;;10.17;;
18532;SDS011;9396;51.510;11.934;2022-11-14T13:24:12;14.37;;;9.57;;
18532;SDS011;9396;51.510;11.934;2022-11-14T13:26:44;13.33;;;9.67;;
18532;SDS011;9396;51.510;11.934;2022-11-14T13:35:19;13.03;;;8.43;;
18532;SDS011;9396;51.510;11.934;2022-11-14T13:41:07;12.50;;;9.43;;
18532;SDS011;9396;51.510;11.934;2022-11-14T13:43:53;18.37;;;12.70;;
18532;SDS011;9396;51.510;11.934;2022-11-14T13:46:32;14.83;;;9.10;;
18532;SDS011;9396;51.510;11.934;2022-11-14T13:49:21;12.73;;;9.87;;
18532;SDS011;9396;51.510;11.934;2022-11-14T13:51:59;12.30;;;9.10;;
18532;SDS011;9396;51.510;11.934;2022-11-14T13:54:26;13.97;;;9.63;;
18532;SDS011;9396;51.510;11.934;2022-11-14T13:56:55;12.67;;;8.67;;
18532;SDS011;9396;51.510;11.934;2022-11-14T13:59:35;13.60;;;8.90;;
18532;SDS011;9396;51.510;11.934;2022-11-14T14:02:24;13.07;;;9.03;;
18532;SDS011;9396;51.510;11.934;2022-11-14T14:05:08;25.60;;;18.50;;
18532;SDS011;9396;51.510;11.934;2022-11-14T14:07:55;12.67;;;9.20;;
18532;SDS011;9396;51.510;11.934;2022-11-14T14:10:30;13.10;;;8.83;;
18532;SDS011;9396;51.510;11.934;2022-11-14T14:13:06;13.30;;;9.20;;
18532;SDS011;9396;51.510;11.934;2022-11-14T14:15:44;14.07;;;8.53;;
18532;SDS011;9396;51.510;11.934;2022-11-14T14:18:19;11.10;;;7.87;;
18532;SDS011;9396;51.510;11.934;2022-11-14T14:20:57;14.73;;;8.80;;
18532;SDS011;9396;51.510;11.934;2022-11-14T14:23:34;10.60;;;8.50;;
18532;SDS011;9396;51.510;11.934;2022-11-14T14:26:11;13.03;;;8.67;;
18532;SDS011;9396;51.510;11.934;2022-11-14T14:28:47;11.70;;;8.30;;
18532;SDS011;9396;51.510;11.934;2022-11-14T14:31:21;12.23;;;9.10;;
18532;SDS011;9396;51.510;11.934;2022-11-14T14:33:48;18.27;;;9.27;;
18532;SDS011;9396;51.510;11.934;2022-11-14T14:36:17;17.10;;;9.33;;
18532;SDS011;9396;51.510;11.934;2022-11-14T14:38:47;13.10;;;9.30;;
18532;SDS011;9396;51.510;11.934;2022-11-14T14:41:15;17.10;;;10.23;;
18532;SDS011;9396;51.510;11.934;2022-11-14T14:43:48;15.80;;;9.93;;
18532;SDS011;9396;51.510;11.934;2022-11-14T14:46:24;15.50;;;10.10;;
18532;SDS011;9396;51.510;11.934;2022-11-14T14:48:53;17.20;;;9.50;;
18532;SDS011;9396;51.510;11.934;2022-11-14T14:51:28;14.63;;;9.50;;
18532;SDS011;9396;51.510;11.934;2022-11-14T14:53:57;15.77;;;10.07;;
18532;SDS011;9396;51.510;11.934;2022-11-14T14:56:24;14.33;;;9.30;;